sensor_id;sensor_type;location;lat;lon;timestamp;P1;durP1;ratioP1;P2;durP2;ratioP2
1925;SDS011;964;42.606;23.588;2023-03-11T00:00:39;13.57;;;8.80;;
1925;SDS011;964;42.606;23.588;2023-03-11T00:03:09;13.70;;;8.37;;
1925;SDS011;964;42.606;23.588;2023-03-11T00:05:38;18.80;;;9.40;;
1925;SDS011;964;42.606;23.588;2023-03-11T00:08:07;16.37;;;9.33;;
1925;SDS011;964;42.606;23.588;2023-03-11T00:10:37;13.00;;;10.30;;
1925;SDS011;964;42.606;23.588;2023-03-11T00:13:05;15.93;;;10.20;;
1925;SDS011;964;42.606;23.588;2023-03-11T00:15:34;17.47;;;10.57;;
1925;SDS011;964;42.606;23.588;2023-03-11T00:18:03;16.00;;;10.00;;
1925;SDS011;964;42.606;23.588;2023-03-11T00:20:31;11.60;;;8.20;;
1925;SDS011;964;42.606;23.588;2023-03-11T00:22:59;11.77;;;8.10;;
1925;SDS011;964;42.606;23.588;2023-03-11T00:25:27;14.70;;;8.43;;
1925;SDS011;964;42.606;23.588;2023-03-11T00:27:59;11.40;;;7.90;;
1925;SDS011;964;42.606;23.588;2023-03-11T00:30:26;12.90;;;9.80;;
1925;SDS011;964;42.606;23.588;2023-03-11T00:32:54;10.43;;;9.17;;
1925;SDS011;964;42.606;23.588;2023-03-11T00:35:24;11.23;;;8.70;;
1925;SDS011;964;42.606;23.588;2023-03-11T00:37:53;10.70;;;8.27;;
1925;SDS011;964;42.606;23.588;2023-03-11T00:40:21;9.07;;;7.80;;
1925;SDS011;964;42.606;23.588;2023-03-11T00:42:49;10.70;;;7.37;;
1925;SDS011;964;42.606;23.588;2023-03-11T00:45:16;9.53;;;7.43;;
1925;SDS011;964;42.606;23.588;2023-03-11T00:47:44;9.17;;;7.13;;
1925;SDS011;964;42.606;23.588;2023-03-11T00:52:43;4.97;;;4.20;;
1925;SDS011;964;42.606;23.588;2023-03-11T00:55:10;4.73;;;3.50;;
1925;SDS011;964;42.606;23.588;2023-03-11T00:57:39;4.07;;;3.60;;
1925;SDS011;964;42.606;23.588;2023-03-11T01:00:06;4.03;;;3.10;;
1925;SDS011;964;42.606;23.588;2023-03-11T01:02:36;4.90;;;2.90;;
1925;SDS011;964;42.606;23.588;2023-03-11T01:05:03;2.63;;;2.43;;
1925;SDS011;964;42.606;23.588;2023-03-11T01:07:31;3.43;;;3.13;;
1925;SDS011;964;42.606;23.588;2023-03-11T01:10:00;3.53;;;2.93;;
1925;SDS011;964;42.606;23.588;2023-03-11T01:12:26;3.40;;;3.10;;
1925;SDS011;964;42.606;23.588;2023-03-11T01:14:53;5.73;;;3.70;;
1925;SDS011;964;42.606;23.588;2023-03-11T01:17:20;4.77;;;3.73;;
1925;SDS011;964;42.606;23.588;2023-03-11T01:19:47;5.77;;;3.83;;
1925;SDS011;964;42.606;23.588;2023-03-11T01:22:14;4.60;;;3.20;;
1925;SDS011;964;42.606;23.588;2023-03-11T01:24:41;4.50;;;3.57;;
1925;SDS011;964;42.606;23.588;2023-03-11T01:27:09;4.40;;;3.10;;
1925;SDS011;964;42.606;23.588;2023-03-11T01:29:35;5.80;;;3.07;;
1925;SDS011;964;42.606;23.588;2023-03-11T01:32:02;3.50;;;2.73;;
1925;SDS011;964;42.606;23.588;2023-03-11T01:34:29;3.20;;;2.80;;
1925;SDS011;964;42.606;23.588;2023-03-11T01:36:57;3.40;;;2.50;;
1925;SDS011;964;42.606;23.588;2023-03-11T01:39:24;3.07;;;2.67;;
1925;SDS011;964;42.606;23.588;2023-03-11T01:41:51;2.50;;;2.30;;
1925;SDS011;964;42.606;23.588;2023-03-11T01:44:21;3.13;;;1.80;;
1925;SDS011;964;42.606;23.588;2023-03-11T01:49:52;2.97;;;2.30;;
1925;SDS011;964;42.606;23.588;2023-03-11T01:52:19;4.57;;;2.90;;
1925;SDS011;964;42.606;23.588;2023-03-11T01:54:46;3.10;;;2.70;;
1925;SDS011;964;42.606;23.588;2023-03-11T01:57:12;12.60;;;6.10;;
1925;SDS011;964;42.606;23.588;2023-03-11T01:59:42;9.50;;;4.77;;
1925;SDS011;964;42.606;23.588;2023-03-11T02:02:15;4.00;;;3.47;;
1925;SDS011;964;42.606;23.588;2023-03-11T02:04:45;4.53;;;2.97;;
1925;SDS011;964;42.606;23.588;2023-03-11T02:07:12;6.43;;;3.63;;
1925;SDS011;964;42.606;23.588;2023-03-11T02:09:39;6.23;;;3.40;;
1925;SDS011;964;42.606;23.588;2023-03-11T02:12:07;4.13;;;2.80;;
1925;SDS011;964;42.606;23.588;2023-03-11T02:14:36;3.97;;;3.27;;
1925;SDS011;964;42.606;23.588;2023-03-11T02:17:08;3.77;;;3.10;;
1925;SDS011;964;42.606;23.588;2023-03-11T02:19:37;7.47;;;5.30;;
1925;SDS011;964;42.606;23.588;2023-03-11T02:22:14;11.50;;;6.40;;
1925;SDS011;964;42.606;23.588;2023-03-11T02:24:42;8.23;;;5.20;;
1925;SDS011;964;42.606;23.588;2023-03-11T02:27:14;5.67;;;3.97;;
1925;SDS011;964;42.606;23.588;2023-03-11T02:29:44;2.83;;;2.60;;
1925;SDS011;964;42.606;23.588;2023-03-11T02:32:14;2.63;;;2.43;;
1925;SDS011;964;42.606;23.588;2023-03-11T02:34:41;3.80;;;2.60;;
1925;SDS011;964;42.606;23.588;2023-03-11T02:37:08;2.40;;;2.20;;
1925;SDS011;964;42.606;23.588;2023-03-11T02:39:37;2.20;;;2.00;;
1925;SDS011;964;42.606;23.588;2023-03-11T02:42:06;2.60;;;2.10;;
1925;SDS011;964;42.606;23.588;2023-03-11T02:44:38;3.10;;;1.97;;
1925;SDS011;964;42.606;23.588;2023-03-11T02:47:09;2.00;;;1.90;;
1925;SDS011;964;42.606;23.588;2023-03-11T02:49:35;2.50;;;2.10;;
1925;SDS011;964;42.606;23.588;2023-03-11T02:52:03;3.33;;;1.70;;
1925;SDS011;964;42.606;23.588;2023-03-11T02:54:30;2.37;;;1.57;;
1925;SDS011;964;42.606;23.588;2023-03-11T02:56:57;2.10;;;1.90;;
1925;SDS011;964;42.606;23.588;2023-03-11T02:59:24;2.17;;;1.43;;
1925;SDS011;964;42.606;23.588;2023-03-11T03:01:53;1.50;;;1.13;;
1925;SDS011;964;42.606;23.588;2023-03-11T03:04:19;1.40;;;1.30;;
1925;SDS011;964;42.606;23.588;2023-03-11T03:06:46;1.50;;;1.40;;
1925;SDS011;964;42.606;23.588;2023-03-11T03:09:13;1.50;;;1.40;;
1925;SDS011;964;42.606;23.588;2023-03-11T03:11:39;1.37;;;1.27;;
1925;SDS011;964;42.606;23.588;2023-03-11T03:14:06;1.23;;;1.13;;
1925;SDS011;964;42.606;23.588;2023-03-11T03:16:33;1.63;;;1.40;;
1925;SDS011;964;42.606;23.588;2023-03-11T03:19:01;1.50;;;1.40;;
1925;SDS011;964;42.606;23.588;2023-03-11T03:21:28;2.10;;;1.83;;
1925;SDS011;964;42.606;23.588;2023-03-11T03:23:55;3.10;;;2.10;;
1925;SDS011;964;42.606;23.588;2023-03-11T03:26:22;1.70;;;1.60;;
1925;SDS011;964;42.606;23.588;2023-03-11T03:28:48;2.30;;;2.10;;
1925;SDS011;964;42.606;23.588;2023-03-11T03:31:15;1.80;;;1.70;;
1925;SDS011;964;42.606;23.588;2023-03-11T03:33:42;1.57;;;1.47;;
1925;SDS011;964;42.606;23.588;2023-03-11T03:36:11;2.40;;;2.17;;
1925;SDS011;964;42.606;23.588;2023-03-11T03:38:39;4.17;;;3.73;;
1925;SDS011;964;42.606;23.588;2023-03-11T03:41:06;3.27;;;2.60;;
1925;SDS011;964;42.606;23.588;2023-03-11T03:43:33;2.50;;;2.30;;
1925;SDS011;964;42.606;23.588;2023-03-11T03:46:00;6.10;;;4.50;;
1925;SDS011;964;42.606;23.588;2023-03-11T03:48:28;2.50;;;2.30;;
1925;SDS011;964;42.606;23.588;2023-03-11T03:50:55;4.60;;;2.97;;
1925;SDS011;964;42.606;23.588;2023-03-11T03:53:23;4.53;;;3.67;;
1925;SDS011;964;42.606;23.588;2023-03-11T03:55:50;8.30;;;3.80;;
1925;SDS011;964;42.606;23.588;2023-03-11T03:58:18;4.30;;;3.60;;
1925;SDS011;964;42.606;23.588;2023-03-11T04:00:45;5.73;;;3.60;;
1925;SDS011;964;42.606;23.588;2023-03-11T04:03:11;5.00;;;4.23;;
1925;SDS011;964;42.606;23.588;2023-03-11T04:05:38;7.53;;;4.27;;
1925;SDS011;964;42.606;23.588;2023-03-11T04:08:05;4.63;;;3.00;;
1925;SDS011;964;42.606;23.588;2023-03-11T04:10:33;4.50;;;3.67;;
1925;SDS011;964;42.606;23.588;2023-03-11T04:12:59;5.50;;;3.90;;
1925;SDS011;964;42.606;23.588;2023-03-11T04:15:26;5.17;;;3.67;;
1925;SDS011;964;42.606;23.588;2023-03-11T04:17:52;4.97;;;2.90;;
1925;SDS011;964;42.606;23.588;2023-03-11T04:20:19;2.33;;;2.13;;
1925;SDS011;964;42.606;23.588;2023-03-11T04:22:46;2.47;;;2.27;;
1925;SDS011;964;42.606;23.588;2023-03-11T04:25:12;4.03;;;2.50;;
1925;SDS011;964;42.606;23.588;2023-03-11T04:27:40;2.60;;;2.40;;
1925;SDS011;964;42.606;23.588;2023-03-11T04:30:10;2.33;;;2.00;;
1925;SDS011;964;42.606;23.588;2023-03-11T04:32:38;2.20;;;2.00;;
1925;SDS011;964;42.606;23.588;2023-03-11T04:35:05;2.30;;;2.10;;
1925;SDS011;964;42.606;23.588;2023-03-11T04:37:32;2.20;;;1.73;;
1925;SDS011;964;42.606;23.588;2023-03-11T04:39:59;1.70;;;1.60;;
1925;SDS011;964;42.606;23.588;2023-03-11T04:42:25;2.30;;;2.10;;
1925;SDS011;964;42.606;23.588;2023-03-11T04:44:54;2.10;;;1.90;;
1925;SDS011;964;42.606;23.588;2023-03-11T04:47:21;2.27;;;1.90;;
1925;SDS011;964;42.606;23.588;2023-03-11T04:49:47;3.03;;;2.57;;
1925;SDS011;964;42.606;23.588;2023-03-11T04:52:14;2.50;;;2.30;;
1925;SDS011;964;42.606;23.588;2023-03-11T04:54:40;4.63;;;4.10;;
1925;SDS011;964;42.606;23.588;2023-03-11T04:57:07;6.00;;;4.73;;
1925;SDS011;964;42.606;23.588;2023-03-11T04:59:34;9.87;;;8.43;;
1925;SDS011;964;42.606;23.588;2023-03-11T05:02:02;10.87;;;6.90;;
1925;SDS011;964;42.606;23.588;2023-03-11T05:04:29;10.07;;;7.20;;
1925;SDS011;964;42.606;23.588;2023-03-11T05:06:56;12.23;;;8.20;;
1925;SDS011;964;42.606;23.588;2023-03-11T05:09:22;4.50;;;3.80;;
1925;SDS011;964;42.606;23.588;2023-03-11T05:11:49;6.43;;;3.43;;
1925;SDS011;964;42.606;23.588;2023-03-11T05:14:15;6.23;;;4.00;;
1925;SDS011;964;42.606;23.588;2023-03-11T05:16:42;4.90;;;3.90;;
1925;SDS011;964;42.606;23.588;2023-03-11T05:19:10;5.67;;;4.07;;
1925;SDS011;964;42.606;23.588;2023-03-11T05:21:51;4.33;;;3.93;;
1925;SDS011;964;42.606;23.588;2023-03-11T05:24:17;5.10;;;3.67;;
1925;SDS011;964;42.606;23.588;2023-03-11T05:26:44;3.93;;;3.10;;
1925;SDS011;964;42.606;23.588;2023-03-11T05:29:11;4.03;;;3.00;;
1925;SDS011;964;42.606;23.588;2023-03-11T05:31:37;4.60;;;3.83;;
1925;SDS011;964;42.606;23.588;2023-03-11T05:34:04;7.27;;;4.43;;
1925;SDS011;964;42.606;23.588;2023-03-11T05:36:32;6.30;;;4.60;;
1925;SDS011;964;42.606;23.588;2023-03-11T05:38:59;7.13;;;5.23;;
1925;SDS011;964;42.606;23.588;2023-03-11T05:41:25;6.33;;;5.13;;
1925;SDS011;964;42.606;23.588;2023-03-11T05:43:52;7.13;;;4.83;;
1925;SDS011;964;42.606;23.588;2023-03-11T05:46:19;6.40;;;4.90;;
1925;SDS011;964;42.606;23.588;2023-03-11T05:48:45;5.47;;;4.97;;
1925;SDS011;964;42.606;23.588;2023-03-11T05:51:12;4.30;;;3.90;;
1925;SDS011;964;42.606;23.588;2023-03-11T05:53:42;5.80;;;4.10;;
1925;SDS011;964;42.606;23.588;2023-03-11T05:56:12;5.10;;;4.30;;
1925;SDS011;964;42.606;23.588;2023-03-11T05:58:39;4.50;;;4.10;;
1925;SDS011;964;42.606;23.588;2023-03-11T06:01:06;4.73;;;4.17;;
1925;SDS011;964;42.606;23.588;2023-03-11T06:06:56;7.23;;;5.60;;
1925;SDS011;964;42.606;23.588;2023-03-11T06:09:24;8.60;;;5.20;;
1925;SDS011;964;42.606;23.588;2023-03-11T06:11:51;6.13;;;4.90;;
1925;SDS011;964;42.606;23.588;2023-03-11T06:14:18;11.13;;;5.97;;
1925;SDS011;964;42.606;23.588;2023-03-11T06:16:44;16.23;;;11.03;;
1925;SDS011;964;42.606;23.588;2023-03-11T06:19:11;13.07;;;9.40;;
1925;SDS011;964;42.606;23.588;2023-03-11T06:21:38;13.07;;;8.77;;
1925;SDS011;964;42.606;23.588;2023-03-11T06:24:06;7.30;;;6.00;;
1925;SDS011;964;42.606;23.588;2023-03-11T06:26:34;4.87;;;3.90;;
1925;SDS011;964;42.606;23.588;2023-03-11T06:29:00;3.83;;;3.40;;
1925;SDS011;964;42.606;23.588;2023-03-11T06:31:27;4.67;;;3.27;;
1925;SDS011;964;42.606;23.588;2023-03-11T06:33:55;3.73;;;2.53;;
1925;SDS011;964;42.606;23.588;2023-03-11T06:36:23;3.53;;;2.77;;
1925;SDS011;964;42.606;23.588;2023-03-11T06:38:50;3.13;;;2.83;;
1925;SDS011;964;42.606;23.588;2023-03-11T06:41:17;3.20;;;2.90;;
1925;SDS011;964;42.606;23.588;2023-03-11T06:43:45;5.33;;;4.30;;
1925;SDS011;964;42.606;23.588;2023-03-11T06:46:12;3.43;;;2.70;;
1925;SDS011;964;42.606;23.588;2023-03-11T06:48:41;4.83;;;4.20;;
1925;SDS011;964;42.606;23.588;2023-03-11T06:51:08;2.80;;;2.47;;
1925;SDS011;964;42.606;23.588;2023-03-11T06:53:35;2.37;;;2.17;;
1925;SDS011;964;42.606;23.588;2023-03-11T06:56:03;2.13;;;1.93;;
1925;SDS011;964;42.606;23.588;2023-03-11T06:58:32;2.90;;;2.50;;
1925;SDS011;964;42.606;23.588;2023-03-11T07:01:03;2.67;;;2.47;;
1925;SDS011;964;42.606;23.588;2023-03-11T07:03:31;3.27;;;2.97;;
1925;SDS011;964;42.606;23.588;2023-03-11T07:05:58;2.40;;;2.20;;
1925;SDS011;964;42.606;23.588;2023-03-11T07:08:25;3.60;;;3.00;;
1925;SDS011;964;42.606;23.588;2023-03-11T07:10:58;2.40;;;2.20;;
1925;SDS011;964;42.606;23.588;2023-03-11T07:13:26;2.60;;;2.40;;
1925;SDS011;964;42.606;23.588;2023-03-11T07:15:58;3.30;;;2.30;;
1925;SDS011;964;42.606;23.588;2023-03-11T07:18:27;3.00;;;2.17;;
1925;SDS011;964;42.606;23.588;2023-03-11T07:20:54;5.50;;;2.37;;
1925;SDS011;964;42.606;23.588;2023-03-11T07:23:21;2.37;;;2.00;;
1925;SDS011;964;42.606;23.588;2023-03-11T07:25:48;1.90;;;1.50;;
1925;SDS011;964;42.606;23.588;2023-03-11T07:28:16;1.80;;;1.37;;
1925;SDS011;964;42.606;23.588;2023-03-11T07:30:42;1.93;;;1.37;;
1925;SDS011;964;42.606;23.588;2023-03-11T07:33:10;1.63;;;1.53;;
1925;SDS011;964;42.606;23.588;2023-03-11T07:35:38;2.30;;;1.60;;
1925;SDS011;964;42.606;23.588;2023-03-11T07:38:05;2.47;;;1.50;;
1925;SDS011;964;42.606;23.588;2023-03-11T07:40:32;1.80;;;1.70;;
1925;SDS011;964;42.606;23.588;2023-03-11T07:42:59;2.90;;;1.80;;
1925;SDS011;964;42.606;23.588;2023-03-11T07:45:26;2.27;;;1.87;;
1925;SDS011;964;42.606;23.588;2023-03-11T07:47:52;5.40;;;1.87;;
1925;SDS011;964;42.606;23.588;2023-03-11T07:50:19;2.17;;;1.97;;
1925;SDS011;964;42.606;23.588;2023-03-11T07:52:48;2.30;;;2.10;;
1925;SDS011;964;42.606;23.588;2023-03-11T07:55:15;3.20;;;2.00;;
1925;SDS011;964;42.606;23.588;2023-03-11T07:57:42;2.50;;;2.00;;
1925;SDS011;964;42.606;23.588;2023-03-11T08:00:09;6.40;;;5.17;;
1925;SDS011;964;42.606;23.588;2023-03-11T08:02:36;2.40;;;2.20;;
1925;SDS011;964;42.606;23.588;2023-03-11T08:05:03;3.00;;;2.23;;
1925;SDS011;964;42.606;23.588;2023-03-11T08:07:31;1.83;;;1.70;;
1925;SDS011;964;42.606;23.588;2023-03-11T08:10:00;2.00;;;1.30;;
1925;SDS011;964;42.606;23.588;2023-03-11T08:12:26;2.30;;;1.00;;
1925;SDS011;964;42.606;23.588;2023-03-11T08:14:53;1.03;;;0.93;;
1925;SDS011;964;42.606;23.588;2023-03-11T08:17:20;0.90;;;0.80;;
1925;SDS011;964;42.606;23.588;2023-03-11T08:19:47;1.20;;;0.90;;
1925;SDS011;964;42.606;23.588;2023-03-11T08:22:14;1.37;;;1.20;;
1925;SDS011;964;42.606;23.588;2023-03-11T08:24:41;1.53;;;1.20;;
1925;SDS011;964;42.606;23.588;2023-03-11T08:27:09;1.67;;;1.17;;
1925;SDS011;964;42.606;23.588;2023-03-11T08:29:36;1.33;;;1.07;;
1925;SDS011;964;42.606;23.588;2023-03-11T08:32:03;1.87;;;1.33;;
1925;SDS011;964;42.606;23.588;2023-03-11T08:34:30;1.50;;;1.13;;
1925;SDS011;964;42.606;23.588;2023-03-11T08:36:59;4.40;;;1.50;;
1925;SDS011;964;42.606;23.588;2023-03-11T08:39:25;1.73;;;1.63;;
1925;SDS011;964;42.606;23.588;2023-03-11T08:41:52;1.73;;;1.60;;
1925;SDS011;964;42.606;23.588;2023-03-11T08:44:20;1.67;;;1.47;;
1925;SDS011;964;42.606;23.588;2023-03-11T08:46:47;2.03;;;1.80;;
1925;SDS011;964;42.606;23.588;2023-03-11T08:49:13;1.73;;;1.63;;
1925;SDS011;964;42.606;23.588;2023-03-11T08:51:40;1.83;;;1.43;;
1925;SDS011;964;42.606;23.588;2023-03-11T08:54:07;1.50;;;1.33;;
1925;SDS011;964;42.606;23.588;2023-03-11T08:56:34;1.10;;;1.00;;
1925;SDS011;964;42.606;23.588;2023-03-11T08:59:00;2.90;;;1.20;;
1925;SDS011;964;42.606;23.588;2023-03-11T09:01:29;1.53;;;1.23;;
1925;SDS011;964;42.606;23.588;2023-03-11T09:03:55;1.57;;;1.40;;
1925;SDS011;964;42.606;23.588;2023-03-11T09:06:22;3.03;;;1.60;;
1925;SDS011;964;42.606;23.588;2023-03-11T09:08:49;1.43;;;1.30;;
1925;SDS011;964;42.606;23.588;2023-03-11T09:11:17;3.83;;;1.47;;
1925;SDS011;964;42.606;23.588;2023-03-11T09:13:46;2.17;;;1.40;;
1925;SDS011;964;42.606;23.588;2023-03-11T09:16:13;1.40;;;1.23;;
1925;SDS011;964;42.606;23.588;2023-03-11T09:18:43;1.00;;;0.90;;
1925;SDS011;964;42.606;23.588;2023-03-11T09:21:10;1.20;;;0.90;;
1925;SDS011;964;42.606;23.588;2023-03-11T09:23:37;2.07;;;1.20;;
1925;SDS011;964;42.606;23.588;2023-03-11T09:26:04;1.40;;;1.30;;
1925;SDS011;964;42.606;23.588;2023-03-11T09:28:31;1.50;;;1.40;;
1925;SDS011;964;42.606;23.588;2023-03-11T09:30:58;1.33;;;1.10;;
1925;SDS011;964;42.606;23.588;2023-03-11T09:33:25;2.70;;;2.20;;
1925;SDS011;964;42.606;23.588;2023-03-11T09:35:53;1.80;;;1.43;;
1925;SDS011;964;42.606;23.588;2023-03-11T09:38:19;2.83;;;1.30;;
1925;SDS011;964;42.606;23.588;2023-03-11T09:40:51;2.03;;;1.47;;
1925;SDS011;964;42.606;23.588;2023-03-11T09:43:30;3.10;;;1.43;;
1925;SDS011;964;42.606;23.588;2023-03-11T09:46:12;3.33;;;1.40;;
1925;SDS011;964;42.606;23.588;2023-03-11T09:48:54;2.20;;;1.40;;
1925;SDS011;964;42.606;23.588;2023-03-11T09:51:31;1.17;;;1.07;;
1925;SDS011;964;42.606;23.588;2023-03-11T09:54:10;2.30;;;1.40;;
1925;SDS011;964;42.606;23.588;2023-03-11T09:56:38;1.40;;;1.30;;
1925;SDS011;964;42.606;23.588;2023-03-11T09:59:12;1.30;;;1.20;;
1925;SDS011;964;42.606;23.588;2023-03-11T10:01:45;1.83;;;1.30;;
1925;SDS011;964;42.606;23.588;2023-03-11T10:04:15;1.27;;;1.17;;
1925;SDS011;964;42.606;23.588;2023-03-11T10:06:46;2.10;;;1.60;;
1925;SDS011;964;42.606;23.588;2023-03-11T10:09:22;0.83;;;0.80;;
1925;SDS011;964;42.606;23.588;2023-03-11T10:14:43;1.30;;;1.20;;
1925;SDS011;964;42.606;23.588;2023-03-11T10:17:34;1.73;;;1.03;;
1925;SDS011;964;42.606;23.588;2023-03-11T10:20:07;1.57;;;1.10;;
1925;SDS011;964;42.606;23.588;2023-03-11T10:22:42;1.37;;;1.10;;
1925;SDS011;964;42.606;23.588;2023-03-11T10:25:18;1.40;;;1.00;;
1925;SDS011;964;42.606;23.588;2023-03-11T10:27:50;1.93;;;1.10;;
1925;SDS011;964;42.606;23.588;2023-03-11T10:30:22;2.23;;;1.17;;
1925;SDS011;964;42.606;23.588;2023-03-11T10:32:55;1.10;;;1.00;;
1925;SDS011;964;42.606;23.588;2023-03-11T10:35:26;1.40;;;1.13;;
1925;SDS011;964;42.606;23.588;2023-03-11T10:38:02;1.20;;;1.10;;
1925;SDS011;964;42.606;23.588;2023-03-11T10:40:37;1.40;;;1.20;;
1925;SDS011;964;42.606;23.588;2023-03-11T10:43:08;2.37;;;1.13;;
1925;SDS011;964;42.606;23.588;2023-03-11T10:45:39;1.50;;;1.00;;
1925;SDS011;964;42.606;23.588;2023-03-11T10:48:09;1.57;;;1.17;;
1925;SDS011;964;42.606;23.588;2023-03-11T10:50:37;1.90;;;0.90;;
1925;SDS011;964;42.606;23.588;2023-03-11T10:53:13;2.43;;;1.10;;
1925;SDS011;964;42.606;23.588;2023-03-11T10:55:44;1.20;;;0.90;;
1925;SDS011;964;42.606;23.588;2023-03-11T10:58:14;2.40;;;1.00;;
1925;SDS011;964;42.606;23.588;2023-03-11T11:00:42;1.73;;;1.00;;
1925;SDS011;964;42.606;23.588;2023-03-11T11:03:15;1.37;;;1.00;;
1925;SDS011;964;42.606;23.588;2023-03-11T11:05:55;3.23;;;1.00;;
1925;SDS011;964;42.606;23.588;2023-03-11T11:08:26;2.33;;;1.30;;
1925;SDS011;964;42.606;23.588;2023-03-11T11:10:54;1.30;;;1.00;;
1925;SDS011;964;42.606;23.588;2023-03-11T11:13:21;3.50;;;1.03;;
1925;SDS011;964;42.606;23.588;2023-03-11T11:15:50;1.60;;;1.20;;
1925;SDS011;964;42.606;23.588;2023-03-11T11:18:20;3.10;;;1.30;;
1925;SDS011;964;42.606;23.588;2023-03-11T11:20:52;1.50;;;1.17;;
1925;SDS011;964;42.606;23.588;2023-03-11T11:23:27;1.20;;;1.10;;
1925;SDS011;964;42.606;23.588;2023-03-11T11:25:59;2.90;;;1.30;;
1925;SDS011;964;42.606;23.588;2023-03-11T11:28:29;1.47;;;1.37;;
1925;SDS011;964;42.606;23.588;2023-03-11T11:30:57;2.13;;;1.40;;
1925;SDS011;964;42.606;23.588;2023-03-11T11:33:25;1.30;;;1.20;;
1925;SDS011;964;42.606;23.588;2023-03-11T11:35:54;2.77;;;1.60;;
1925;SDS011;964;42.606;23.588;2023-03-11T11:38:24;2.93;;;1.80;;
1925;SDS011;964;42.606;23.588;2023-03-11T11:40:54;3.10;;;1.53;;
1925;SDS011;964;42.606;23.588;2023-03-11T11:43:24;1.27;;;1.00;;
1925;SDS011;964;42.606;23.588;2023-03-11T11:46:04;1.30;;;1.07;;
1925;SDS011;964;42.606;23.588;2023-03-11T11:48:39;2.70;;;1.20;;
1925;SDS011;964;42.606;23.588;2023-03-11T11:51:14;1.40;;;1.10;;
1925;SDS011;964;42.606;23.588;2023-03-11T11:53:47;1.30;;;1.20;;
1925;SDS011;964;42.606;23.588;2023-03-11T11:56:17;1.30;;;1.10;;
1925;SDS011;964;42.606;23.588;2023-03-11T11:58:44;1.67;;;1.47;;
1925;SDS011;964;42.606;23.588;2023-03-11T12:01:13;4.30;;;1.67;;
1925;SDS011;964;42.606;23.588;2023-03-11T12:03:57;1.47;;;1.33;;
1925;SDS011;964;42.606;23.588;2023-03-11T12:06:41;2.30;;;1.40;;
1925;SDS011;964;42.606;23.588;2023-03-11T12:09:19;5.03;;;1.30;;
1925;SDS011;964;42.606;23.588;2023-03-11T12:11:54;3.10;;;1.47;;
1925;SDS011;964;42.606;23.588;2023-03-11T12:14:28;3.33;;;1.30;;
1925;SDS011;964;42.606;23.588;2023-03-11T12:16:59;2.70;;;1.13;;
1925;SDS011;964;42.606;23.588;2023-03-11T12:19:31;1.63;;;1.43;;
1925;SDS011;964;42.606;23.588;2023-03-11T12:22:07;1.47;;;1.37;;
1925;SDS011;964;42.606;23.588;2023-03-11T12:24:55;2.70;;;1.60;;
1925;SDS011;964;42.606;23.588;2023-03-11T12:27:38;2.23;;;1.50;;
1925;SDS011;964;42.606;23.588;2023-03-11T12:30:10;1.67;;;1.50;;
1925;SDS011;964;42.606;23.588;2023-03-11T12:32:42;4.07;;;1.20;;
1925;SDS011;964;42.606;23.588;2023-03-11T12:35:18;2.03;;;1.47;;
1925;SDS011;964;42.606;23.588;2023-03-11T12:37:54;1.67;;;1.20;;
1925;SDS011;964;42.606;23.588;2023-03-11T12:43:22;1.30;;;0.90;;
1925;SDS011;964;42.606;23.588;2023-03-11T12:45:50;1.93;;;1.60;;
1925;SDS011;964;42.606;23.588;2023-03-11T12:48:32;1.87;;;1.00;;
1925;SDS011;964;42.606;23.588;2023-03-11T12:51:00;1.37;;;1.27;;
1925;SDS011;964;42.606;23.588;2023-03-11T12:53:40;1.37;;;1.00;;
1925;SDS011;964;42.606;23.588;2023-03-11T12:56:12;4.87;;;1.10;;
1925;SDS011;964;42.606;23.588;2023-03-11T12:58:58;1.97;;;1.00;;
1925;SDS011;964;42.606;23.588;2023-03-11T13:02:00;2.13;;;1.10;;
1925;SDS011;964;42.606;23.588;2023-03-11T13:04:39;1.27;;;1.00;;
1925;SDS011;964;42.606;23.588;2023-03-11T13:07:31;1.33;;;1.00;;
1925;SDS011;964;42.606;23.588;2023-03-11T13:10:04;1.73;;;0.90;;
1925;SDS011;964;42.606;23.588;2023-03-11T13:12:41;4.20;;;1.07;;
1925;SDS011;964;42.606;23.588;2023-03-11T13:18:01;1.40;;;0.90;;
1925;SDS011;964;42.606;23.588;2023-03-11T13:20:42;2.07;;;0.70;;
1925;SDS011;964;42.606;23.588;2023-03-11T13:23:25;0.93;;;0.83;;
1925;SDS011;964;42.606;23.588;2023-03-11T13:26:15;1.70;;;1.60;;
1925;SDS011;964;42.606;23.588;2023-03-11T13:29:04;1.47;;;1.00;;
1925;SDS011;964;42.606;23.588;2023-03-11T13:31:55;1.83;;;0.90;;
1925;SDS011;964;42.606;23.588;2023-03-11T13:34:33;1.10;;;0.90;;
1925;SDS011;964;42.606;23.588;2023-03-11T13:37:13;1.30;;;0.90;;
1925;SDS011;964;42.606;23.588;2023-03-11T13:39:52;1.00;;;0.73;;
1925;SDS011;964;42.606;23.588;2023-03-11T13:42:42;1.97;;;1.00;;
1925;SDS011;964;42.606;23.588;2023-03-11T13:45:18;1.00;;;0.80;;
1925;SDS011;964;42.606;23.588;2023-03-11T13:47:52;3.60;;;0.90;;
1925;SDS011;964;42.606;23.588;2023-03-11T13:50:23;3.20;;;1.47;;
1925;SDS011;964;42.606;23.588;2023-03-11T13:52:53;2.50;;;1.53;;
1925;SDS011;964;42.606;23.588;2023-03-11T13:55:24;2.57;;;1.40;;
1925;SDS011;964;42.606;23.588;2023-03-11T13:57:56;1.27;;;1.17;;
1925;SDS011;964;42.606;23.588;2023-03-11T14:00:25;6.03;;;1.27;;
1925;SDS011;964;42.606;23.588;2023-03-11T14:02:54;1.40;;;1.20;;
1925;SDS011;964;42.606;23.588;2023-03-11T14:05:22;1.73;;;0.97;;
1925;SDS011;964;42.606;23.588;2023-03-11T14:07:51;1.87;;;1.17;;
1925;SDS011;964;42.606;23.588;2023-03-11T14:10:25;2.10;;;1.17;;
1925;SDS011;964;42.606;23.588;2023-03-11T14:13:03;2.90;;;1.47;;
1925;SDS011;964;42.606;23.588;2023-03-11T14:15:36;1.70;;;1.50;;
1925;SDS011;964;42.606;23.588;2023-03-11T14:18:24;3.10;;;1.57;;
1925;SDS011;964;42.606;23.588;2023-03-11T14:21:08;1.40;;;1.30;;
1925;SDS011;964;42.606;23.588;2023-03-11T14:24:14;1.73;;;1.40;;
1925;SDS011;964;42.606;23.588;2023-03-11T14:26:42;1.50;;;1.13;;
1925;SDS011;964;42.606;23.588;2023-03-11T14:29:10;1.90;;;1.63;;
1925;SDS011;964;42.606;23.588;2023-03-11T14:31:42;3.27;;;1.70;;
1925;SDS011;964;42.606;23.588;2023-03-11T14:34:13;2.70;;;1.60;;
1925;SDS011;964;42.606;23.588;2023-03-11T14:36:41;2.20;;;1.50;;
1925;SDS011;964;42.606;23.588;2023-03-11T14:39:22;2.00;;;1.57;;
1925;SDS011;964;42.606;23.588;2023-03-11T14:41:52;2.90;;;1.60;;
1925;SDS011;964;42.606;23.588;2023-03-11T14:44:22;3.00;;;1.60;;
1925;SDS011;964;42.606;23.588;2023-03-11T14:46:53;2.43;;;1.90;;
1925;SDS011;964;42.606;23.588;2023-03-11T14:49:27;1.50;;;1.17;;
1925;SDS011;964;42.606;23.588;2023-03-11T14:51:56;1.93;;;1.50;;
1925;SDS011;964;42.606;23.588;2023-03-11T14:54:26;2.33;;;1.97;;
1925;SDS011;964;42.606;23.588;2023-03-11T14:56:58;2.23;;;1.93;;
1925;SDS011;964;42.606;23.588;2023-03-11T14:59:29;2.80;;;1.60;;
1925;SDS011;964;42.606;23.588;2023-03-11T15:02:03;2.00;;;1.80;;
1925;SDS011;964;42.606;23.588;2023-03-11T15:04:43;4.37;;;1.83;;
1925;SDS011;964;42.606;23.588;2023-03-11T15:07:10;1.60;;;1.50;;
1925;SDS011;964;42.606;23.588;2023-03-11T15:09:45;1.80;;;1.50;;
1925;SDS011;964;42.606;23.588;2023-03-11T15:14:58;2.43;;;1.60;;
1925;SDS011;964;42.606;23.588;2023-03-11T15:17:27;2.20;;;1.70;;
1925;SDS011;964;42.606;23.588;2023-03-11T15:19:56;2.20;;;1.80;;
1925;SDS011;964;42.606;23.588;2023-03-11T15:22:23;2.10;;;1.83;;
1925;SDS011;964;42.606;23.588;2023-03-11T15:24:52;2.27;;;1.90;;
1925;SDS011;964;42.606;23.588;2023-03-11T15:27:23;2.03;;;1.83;;
1925;SDS011;964;42.606;23.588;2023-03-11T15:29:54;2.00;;;1.90;;
1925;SDS011;964;42.606;23.588;2023-03-11T15:32:34;2.60;;;1.60;;
1925;SDS011;964;42.606;23.588;2023-03-11T15:35:11;3.63;;;1.80;;
1925;SDS011;964;42.606;23.588;2023-03-11T15:37:40;2.60;;;1.80;;
1925;SDS011;964;42.606;23.588;2023-03-11T15:40:12;3.37;;;2.10;;
1925;SDS011;964;42.606;23.588;2023-03-11T15:42:44;3.07;;;2.30;;
1925;SDS011;964;42.606;23.588;2023-03-11T15:45:15;1.73;;;1.63;;
1925;SDS011;964;42.606;23.588;2023-03-11T15:47:45;3.37;;;2.43;;
1925;SDS011;964;42.606;23.588;2023-03-11T15:50:20;5.15;;;2.20;;
1925;SDS011;964;42.606;23.588;2023-03-11T15:52:49;3.80;;;2.63;;